sensor_id;sensor_type;location;lat;lon;timestamp;temperature;humidity
17208;DHT22;8720;48.488;9.202;2022-12-10T00:02:13;4.00;58.10
17208;DHT22;8720;48.488;9.202;2022-12-10T00:04:40;4.00;58.10
17208;DHT22;8720;48.488;9.202;2022-12-10T00:07:08;4.00;58.10
17208;DHT22;8720;48.488;9.202;2022-12-10T00:09:35;4.00;58.10
17208;DHT22;8720;48.488;9.202;2022-12-10T00:12:03;4.00;58.10
17208;DHT22;8720;48.488;9.202;2022-12-10T00:14:31;4.00;58.20
17208;DHT22;8720;48.488;9.202;2022-12-10T00:16:58;4.10;58.40
17208;DHT22;8720;48.488;9.202;2022-12-10T00:19:27;4.10;58.40
17208;DHT22;8720;48.488;9.202;2022-12-10T00:21:54;4.10;58.40
17208;DHT22;8720;48.488;9.202;2022-12-10T00:24:21;4.10;58.40
17208;DHT22;8720;48.488;9.202;2022-12-10T00:26:48;4.10;58.40
17208;DHT22;8720;48.488;9.202;2022-12-10T00:29:16;4.10;58.40
17208;DHT22;8720;48.488;9.202;2022-12-10T00:31:43;4.10;58.40
17208;DHT22;8720;48.488;9.202;2022-12-10T00:34:11;4.10;58.40
17208;DHT22;8720;48.488;9.202;2022-12-10T00:36:42;4.10;58.40
17208;DHT22;8720;48.488;9.202;2022-12-10T00:39:13;4.20;58.40
17208;DHT22;8720;48.488;9.202;2022-12-10T00:41:43;4.20;58.40
17208;DHT22;8720;48.488;9.202;2022-12-10T00:44:12;4.20;58.40
17208;DHT22;8720;48.488;9.202;2022-12-10T00:46:39;4.10;58.30
17208;DHT22;8720;48.488;9.202;2022-12-10T00:49:07;4.20;58.40
17208;DHT22;8720;48.488;9.202;2022-12-10T00:51:35;4.10;58.30
17208;DHT22;8720;48.488;9.202;2022-12-10T00:54:03;4.10;58.40
17208;DHT22;8720;48.488;9.202;2022-12-10T00:56:32;4.10;58.40
17208;DHT22;8720;48.488;9.202;2022-12-10T00:59:01;4.10;58.40
17208;DHT22;8720;48.488;9.202;2022-12-10T01:01:30;4.10;58.50
17208;DHT22;8720;48.488;9.202;2022-12-10T01:04:00;4.10;58.60
17208;DHT22;8720;48.488;9.202;2022-12-10T01:06:33;4.10;58.70
17208;DHT22;8720;48.488;9.202;2022-12-10T01:09:05;4.10;58.70
17208;DHT22;8720;48.488;9.202;2022-12-10T01:11:35;4.20;58.80
17208;DHT22;8720;48.488;9.202;2022-12-10T01:14:05;4.20;58.80
17208;DHT22;8720;48.488;9.202;2022-12-10T01:16:33;4.20;58.80
17208;DHT22;8720;48.488;9.202;2022-12-10T01:19:00;4.20;58.80
17208;DHT22;8720;48.488;9.202;2022-12-10T01:21:28;4.20;58.70
17208;DHT22;8720;48.488;9.202;2022-12-10T01:23:57;4.20;58.70
17208;DHT22;8720;48.488;9.202;2022-12-10T01:26:29;4.20;58.70
17208;DHT22;8720;48.488;9.202;2022-12-10T01:29:01;4.30;58.80
17208;DHT22;8720;48.488;9.202;2022-12-10T01:31:31;4.30;58.70
17208;DHT22;8720;48.488;9.202;2022-12-10T01:33:59;4.30;58.70
17208;DHT22;8720;48.488;9.202;2022-12-10T01:36:30;4.30;58.70
17208;DHT22;8720;48.488;9.202;2022-12-10T01:38:59;4.30;58.70
17208;DHT22;8720;48.488;9.202;2022-12-10T01:41:33;4.30;58.60
17208;DHT22;8720;48.488;9.202;2022-12-10T01:44:53;4.30;58.60
17208;DHT22;8720;48.488;9.202;2022-12-10T01:47:11;4.30;58.60
17208;DHT22;8720;48.488;9.202;2022-12-10T01:49:40;4.30;58.90
17208;DHT22;8720;48.488;9.202;2022-12-10T01:52:09;4.30;58.60
17208;DHT22;8720;48.488;9.202;2022-12-10T01:54:40;4.30;58.60
17208;DHT22;8720;48.488;9.202;2022-12-10T01:57:13;4.30;58.60
17208;DHT22;8720;48.488;9.202;2022-12-10T01:59:44;4.30;58.70
17208;DHT22;8720;48.488;9.202;2022-12-10T02:02:18;4.30;58.60
17208;DHT22;8720;48.488;9.202;2022-12-10T02:05:01;4.30;58.70
17208;DHT22;8720;48.488;9.202;2022-12-10T02:07:44;4.30;58.70
17208;DHT22;8720;48.488;9.202;2022-12-10T02:10:24;4.30;58.70
17208;DHT22;8720;48.488;9.202;2022-12-10T02:13:11;4.30;58.70
17208;DHT22;8720;48.488;9.202;2022-12-10T02:15:47;4.30;58.60
17208;DHT22;8720;48.488;9.202;2022-12-10T02:18:21;4.30;58.60
17208;DHT22;8720;48.488;9.202;2022-12-10T02:20:57;4.30;58.60
17208;DHT22;8720;48.488;9.202;2022-12-10T02:23:30;4.40;58.60
17208;DHT22;8720;48.488;9.202;2022-12-10T02:26:03;4.30;58.60
17208;DHT22;8720;48.488;9.202;2022-12-10T02:28:44;4.40;58.70
17208;DHT22;8720;48.488;9.202;2022-12-10T02:31:24;4.40;58.80
17208;DHT22;8720;48.488;9.202;2022-12-10T02:33:57;4.40;58.80
17208;DHT22;8720;48.488;9.202;2022-12-10T02:36:29;4.40;58.70
17208;DHT22;8720;48.488;9.202;2022-12-10T02:39:02;4.40;58.70
17208;DHT22;8720;48.488;9.202;2022-12-10T02:41:39;4.40;58.70
17208;DHT22;8720;48.488;9.202;2022-12-10T02:44:12;4.40;58.70
17208;DHT22;8720;48.488;9.202;2022-12-10T02:46:45;4.40;58.70
17208;DHT22;8720;48.488;9.202;2022-12-10T02:49:18;4.40;58.70
17208;DHT22;8720;48.488;9.202;2022-12-10T02:51:45;4.30;58.60
17208;DHT22;8720;48.488;9.202;2022-12-10T02:54:35;4.30;58.70
17208;DHT22;8720;48.488;9.202;2022-12-10T02:57:14;4.30;58.80
17208;DHT22;8720;48.488;9.202;2022-12-10T03:00:00;4.30;58.80
17208;DHT22;8720;48.488;9.202;2022-12-10T03:05:46;4.30;58.80
17208;DHT22;8720;48.488;9.202;2022-12-10T03:08:21;4.20;58.80
17208;DHT22;8720;48.488;9.202;2022-12-10T03:10:57;4.20;58.90
17208;DHT22;8720;48.488;9.202;2022-12-10T03:13:31;4.20;59.00
17208;DHT22;8720;48.488;9.202;2022-12-10T03:16:03;4.20;59.00
17208;DHT22;8720;48.488;9.202;2022-12-10T03:18:34;4.20;59.10
17208;DHT22;8720;48.488;9.202;2022-12-10T03:21:06;4.10;59.20
17208;DHT22;8720;48.488;9.202;2022-12-10T03:23:40;4.10;59.30
17208;DHT22;8720;48.488;9.202;2022-12-10T03:26:10;4.10;60.00
17208;DHT22;8720;48.488;9.202;2022-12-10T03:28:40;4.10;59.40
17208;DHT22;8720;48.488;9.202;2022-12-10T03:31:14;4.10;59.50
17208;DHT22;8720;48.488;9.202;2022-12-10T03:33:44;4.10;59.50
17208;DHT22;8720;48.488;9.202;2022-12-10T03:36:15;4.10;59.50
17208;DHT22;8720;48.488;9.202;2022-12-10T03:38:45;4.10;59.60
17208;DHT22;8720;48.488;9.202;2022-12-10T03:41:13;4.10;59.60
17208;DHT22;8720;48.488;9.202;2022-12-10T03:43:50;4.10;59.70
17208;DHT22;8720;48.488;9.202;2022-12-10T03:46:18;4.00;59.70
17208;DHT22;8720;48.488;9.202;2022-12-10T03:48:46;4.10;59.80
17208;DHT22;8720;48.488;9.202;2022-12-10T03:51:15;4.10;59.70
17208;DHT22;8720;48.488;9.202;2022-12-10T03:53:42;4.10;59.80
17208;DHT22;8720;48.488;9.202;2022-12-10T03:56:09;4.10;59.90
17208;DHT22;8720;48.488;9.202;2022-12-10T03:58:37;4.10;59.80
17208;DHT22;8720;48.488;9.202;2022-12-10T04:01:04;4.10;59.90
17208;DHT22;8720;48.488;9.202;2022-12-10T04:03:34;4.10;59.90
17208;DHT22;8720;48.488;9.202;2022-12-10T04:06:04;4.10;60.00
17208;DHT22;8720;48.488;9.202;2022-12-10T04:08:33;4.10;59.90
17208;DHT22;8720;48.488;9.202;2022-12-10T04:11:05;4.10;60.00
17208;DHT22;8720;48.488;9.202;2022-12-10T04:13:34;4.10;60.00
17208;DHT22;8720;48.488;9.202;2022-12-10T04:16:20;4.10;60.00
17208;DHT22;8720;48.488;9.202;2022-12-10T04:18:55;4.10;60.00
17208;DHT22;8720;48.488;9.202;2022-12-10T04:21:24;4.20;60.00
17208;DHT22;8720;48.488;9.202;2022-12-10T04:24:12;4.20;59.90
17208;DHT22;8720;48.488;9.202;2022-12-10T04:27:01;4.20;59.90
17208;DHT22;8720;48.488;9.202;2022-12-10T04:29:30;4.20;59.90
17208;DHT22;8720;48.488;9.202;2022-12-10T04:31:58;4.20;59.80
17208;DHT22;8720;48.488;9.202;2022-12-10T04:34:25;4.20;60.40
17208;DHT22;8720;48.488;9.202;2022-12-10T04:36:53;4.20;59.70
17208;DHT22;8720;48.488;9.202;2022-12-10T04:39:22;4.20;59.70
17208;DHT22;8720;48.488;9.202;2022-12-10T04:41:50;4.20;59.60
17208;DHT22;8720;48.488;9.202;2022-12-10T04:44:17;4.20;59.50
17208;DHT22;8720;48.488;9.202;2022-12-10T04:46:46;4.20;59.60
17208;DHT22;8720;48.488;9.202;2022-12-10T04:49:15;4.20;59.60
17208;DHT22;8720;48.488;9.202;2022-12-10T04:51:43;4.10;59.50
17208;DHT22;8720;48.488;9.202;2022-12-10T04:54:11;4.10;59.70
17208;DHT22;8720;48.488;9.202;2022-12-10T04:56:41;4.10;59.70
17208;DHT22;8720;48.488;9.202;2022-12-10T04:59:09;4.10;59.70
17208;DHT22;8720;48.488;9.202;2022-12-10T05:01:37;4.10;59.60
17208;DHT22;8720;48.488;9.202;2022-12-10T05:04:06;4.10;59.70
17208;DHT22;8720;48.488;9.202;2022-12-10T05:06:35;4.10;59.70
17208;DHT22;8720;48.488;9.202;2022-12-10T05:09:06;4.10;59.70
17208;DHT22;8720;48.488;9.202;2022-12-10T05:11:34;4.10;59.70
17208;DHT22;8720;48.488;9.202;2022-12-10T05:14:04;4.10;59.70
17208;DHT22;8720;48.488;9.202;2022-12-10T05:16:33;4.10;59.70
17208;DHT22;8720;48.488;9.202;2022-12-10T05:19:00;4.10;59.60
17208;DHT22;8720;48.488;9.202;2022-12-10T05:21:29;4.10;59.60
17208;DHT22;8720;48.488;9.202;2022-12-10T05:24:10;4.10;59.60
17208;DHT22;8720;48.488;9.202;2022-12-10T05:26:38;4.10;59.50
17208;DHT22;8720;48.488;9.202;2022-12-10T05:29:06;4.10;59.50
17208;DHT22;8720;48.488;9.202;2022-12-10T05:31:35;4.10;59.50
17208;DHT22;8720;48.488;9.202;2022-12-10T05:34:03;4.10;59.50
17208;DHT22;8720;48.488;9.202;2022-12-10T05:36:31;4.10;60.00
17208;DHT22;8720;48.488;9.202;2022-12-10T05:38:59;4.10;59.60
17208;DHT22;8720;48.488;9.202;2022-12-10T05:41:27;4.10;59.60
17208;DHT22;8720;48.488;9.202;2022-12-10T05:43:58;4.10;59.70
17208;DHT22;8720;48.488;9.202;2022-12-10T05:46:29;4.10;59.70
17208;DHT22;8720;48.488;9.202;2022-12-10T05:48:59;4.10;59.70
17208;DHT22;8720;48.488;9.202;2022-12-10T05:51:30;4.10;59.70
17208;DHT22;8720;48.488;9.202;2022-12-10T05:53:59;4.10;59.70
17208;DHT22;8720;48.488;9.202;2022-12-10T05:56:29;4.10;59.70
17208;DHT22;8720;48.488;9.202;2022-12-10T05:58:59;4.10;59.70
17208;DHT22;8720;48.488;9.202;2022-12-10T06:01:31;4.10;59.80
17208;DHT22;8720;48.488;9.202;2022-12-10T06:04:02;4.10;59.70
17208;DHT22;8720;48.488;9.202;2022-12-10T06:06:33;4.10;59.70
17208;DHT22;8720;48.488;9.202;2022-12-10T06:09:03;4.10;59.70
17208;DHT22;8720;48.488;9.202;2022-12-10T06:11:31;4.10;59.70
17208;DHT22;8720;48.488;9.202;2022-12-10T06:13:59;4.10;59.80
17208;DHT22;8720;48.488;9.202;2022-12-10T06:16:29;4.10;59.80
17208;DHT22;8720;48.488;9.202;2022-12-10T06:18:56;4.10;59.90
17208;DHT22;8720;48.488;9.202;2022-12-10T06:21:24;4.10;59.90
17208;DHT22;8720;48.488;9.202;2022-12-10T06:23:51;4.10;59.90
17208;DHT22;8720;48.488;9.202;2022-12-10T06:26:21;4.10;59.90
17208;DHT22;8720;48.488;9.202;2022-12-10T06:28:51;4.10;60.00
17208;DHT22;8720;48.488;9.202;2022-12-10T06:31:19;4.10;60.00
17208;DHT22;8720;48.488;9.202;2022-12-10T06:33:48;4.10;60.00
17208;DHT22;8720;48.488;9.202;2022-12-10T06:36:16;4.10;60.00
17208;DHT22;8720;48.488;9.202;2022-12-10T06:38:45;4.10;60.00
17208;DHT22;8720;48.488;9.202;2022-12-10T06:41:14;4.10;60.00
17208;DHT22;8720;48.488;9.202;2022-12-10T06:43:42;4.10;60.00
17208;DHT22;8720;48.488;9.202;2022-12-10T06:46:11;4.10;60.00
17208;DHT22;8720;48.488;9.202;2022-12-10T06:48:40;4.10;60.70
17208;DHT22;8720;48.488;9.202;2022-12-10T06:51:10;4.10;60.30
17208;DHT22;8720;48.488;9.202;2022-12-10T06:53:39;4.10;60.00
17208;DHT22;8720;48.488;9.202;2022-12-10T06:56:09;4.10;60.70
17208;DHT22;8720;48.488;9.202;2022-12-10T06:58:39;4.10;60.00
17208;DHT22;8720;48.488;9.202;2022-12-10T07:01:09;4.10;60.00
17208;DHT22;8720;48.488;9.202;2022-12-10T07:03:37;4.10;60.40
17208;DHT22;8720;48.488;9.202;2022-12-10T07:06:06;4.10;60.40
17208;DHT22;8720;48.488;9.202;2022-12-10T07:08:37;4.10;60.30
17208;DHT22;8720;48.488;9.202;2022-12-10T07:11:05;4.10;60.20
17208;DHT22;8720;48.488;9.202;2022-12-10T07:13:34;4.10;60.10
17208;DHT22;8720;48.488;9.202;2022-12-10T07:16:02;4.20;60.00
17208;DHT22;8720;48.488;9.202;2022-12-10T07:18:29;4.20;59.90
17208;DHT22;8720;48.488;9.202;2022-12-10T07:20:56;4.20;59.80
17208;DHT22;8720;48.488;9.202;2022-12-10T07:23:24;4.20;59.70
17208;DHT22;8720;48.488;9.202;2022-12-10T07:25:54;4.10;59.70
17208;DHT22;8720;48.488;9.202;2022-12-10T07:28:21;4.20;59.70
17208;DHT22;8720;48.488;9.202;2022-12-10T07:30:48;4.20;59.70
17208;DHT22;8720;48.488;9.202;2022-12-10T07:33:15;4.10;59.60
17208;DHT22;8720;48.488;9.202;2022-12-10T07:35:43;4.20;59.70
17208;DHT22;8720;48.488;9.202;2022-12-10T07:38:10;4.20;59.60
17208;DHT22;8720;48.488;9.202;2022-12-10T07:40:37;4.20;59.60
17208;DHT22;8720;48.488;9.202;2022-12-10T07:43:06;4.20;59.60
17208;DHT22;8720;48.488;9.202;2022-12-10T07:45:33;4.20;59.50
17208;DHT22;8720;48.488;9.202;2022-12-10T07:48:00;4.20;59.40
17208;DHT22;8720;48.488;9.202;2022-12-10T07:50:27;4.20;59.30
17208;DHT22;8720;48.488;9.202;2022-12-10T07:52:54;4.20;59.30
17208;DHT22;8720;48.488;9.202;2022-12-10T07:55:22;4.20;59.20
17208;DHT22;8720;48.488;9.202;2022-12-10T07:57:49;4.10;59.10
17208;DHT22;8720;48.488;9.202;2022-12-10T08:00:18;4.20;59.20
17208;DHT22;8720;48.488;9.202;2022-12-10T08:02:45;4.10;59.00
17208;DHT22;8720;48.488;9.202;2022-12-10T08:05:12;4.10;59.00
17208;DHT22;8720;48.488;9.202;2022-12-10T08:07:40;4.20;59.20
17208;DHT22;8720;48.488;9.202;2022-12-10T08:10:07;4.20;59.10
17208;DHT22;8720;48.488;9.202;2022-12-10T08:12:34;4.20;59.00
17208;DHT22;8720;48.488;9.202;2022-12-10T08:15:02;4.10;58.90
17208;DHT22;8720;48.488;9.202;2022-12-10T08:17:31;4.10;58.80
17208;DHT22;8720;48.488;9.202;2022-12-10T08:19:58;4.10;58.80
17208;DHT22;8720;48.488;9.202;2022-12-10T08:22:25;4.10;58.70
17208;DHT22;8720;48.488;9.202;2022-12-10T08:24:52;4.10;58.70
17208;DHT22;8720;48.488;9.202;2022-12-10T08:27:20;4.10;58.60
17208;DHT22;8720;48.488;9.202;2022-12-10T08:29:47;4.10;58.60
17208;DHT22;8720;48.488;9.202;2022-12-10T08:32:14;4.10;58.70
17208;DHT22;8720;48.488;9.202;2022-12-10T08:34:42;4.10;58.80
17208;DHT22;8720;48.488;9.202;2022-12-10T08:37:10;4.10;58.70
17208;DHT22;8720;48.488;9.202;2022-12-10T08:39:37;4.10;58.60
17208;DHT22;8720;48.488;9.202;2022-12-10T08:42:06;4.10;59.10
17208;DHT22;8720;48.488;9.202;2022-12-10T08:44:33;4.10;58.40
17208;DHT22;8720;48.488;9.202;2022-12-10T08:47:00;4.10;58.40
17208;DHT22;8720;48.488;9.202;2022-12-10T08:49:27;4.10;58.40
17208;DHT22;8720;48.488;9.202;2022-12-10T08:51:56;4.10;58.40
17208;DHT22;8720;48.488;9.202;2022-12-10T08:54:23;4.10;58.30
17208;DHT22;8720;48.488;9.202;2022-12-10T08:56:50;4.10;58.30
17208;DHT22;8720;48.488;9.202;2022-12-10T08:59:17;4.20;58.40
17208;DHT22;8720;48.488;9.202;2022-12-10T09:01:45;4.20;58.40
17208;DHT22;8720;48.488;9.202;2022-12-10T09:04:12;4.20;58.30
17208;DHT22;8720;48.488;9.202;2022-12-10T09:06:41;4.20;58.20
17208;DHT22;8720;48.488;9.202;2022-12-10T09:09:09;4.20;58.20
17208;DHT22;8720;48.488;9.202;2022-12-10T09:11:37;4.20;58.20
17208;DHT22;8720;48.488;9.202;2022-12-10T09:14:04;4.30;58.40
17208;DHT22;8720;48.488;9.202;2022-12-10T09:16:32;4.30;58.30
17208;DHT22;8720;48.488;9.202;2022-12-10T09:19:02;4.30;58.30
17208;DHT22;8720;48.488;9.202;2022-12-10T09:21:31;4.30;58.30
17208;DHT22;8720;48.488;9.202;2022-12-10T09:23:58;4.40;58.40
17208;DHT22;8720;48.488;9.202;2022-12-10T09:26:27;4.40;58.30
17208;DHT22;8720;48.488;9.202;2022-12-10T09:28:55;4.40;58.10
17208;DHT22;8720;48.488;9.202;2022-12-10T09:31:23;4.50;58.10
17208;DHT22;8720;48.488;9.202;2022-12-10T09:33:53;4.50;57.90
17208;DHT22;8720;48.488;9.202;2022-12-10T09:36:22;4.50;57.70
17208;DHT22;8720;48.488;9.202;2022-12-10T09:38:49;4.50;57.80
17208;DHT22;8720;48.488;9.202;2022-12-10T09:44:39;4.50;57.50
17208;DHT22;8720;48.488;9.202;2022-12-10T09:47:14;4.50;57.40
17208;DHT22;8720;48.488;9.202;2022-12-10T09:49:56;4.60;57.70
17208;DHT22;8720;48.488;9.202;2022-12-10T09:52:37;4.60;57.50
17208;DHT22;8720;48.488;9.202;2022-12-10T09:55:13;4.60;57.60
17208;DHT22;8720;48.488;9.202;2022-12-10T09:57:45;4.60;57.50
17208;DHT22;8720;48.488;9.202;2022-12-10T10:00:21;4.60;57.50
17208;DHT22;8720;48.488;9.202;2022-12-10T10:02:50;4.60;57.40
17208;DHT22;8720;48.488;9.202;2022-12-10T10:05:22;4.60;57.40
17208;DHT22;8720;48.488;9.202;2022-12-10T10:07:55;4.60;57.30
17208;DHT22;8720;48.488;9.202;2022-12-10T10:10:26;4.60;57.30
17208;DHT22;8720;48.488;9.202;2022-12-10T10:13:00;4.60;57.30
17208;DHT22;8720;48.488;9.202;2022-12-10T10:15:40;4.70;57.40
17208;DHT22;8720;48.488;9.202;2022-12-10T10:18:14;4.70;57.60
17208;DHT22;8720;48.488;9.202;2022-12-10T10:20:50;4.70;57.40
17208;DHT22;8720;48.488;9.202;2022-12-10T10:23:18;4.70;57.20
17208;DHT22;8720;48.488;9.202;2022-12-10T10:25:45;4.70;57.70
17208;DHT22;8720;48.488;9.202;2022-12-10T10:28:18;4.80;57.10
17208;DHT22;8720;48.488;9.202;2022-12-10T10:30:48;4.80;57.00
17208;DHT22;8720;48.488;9.202;2022-12-10T10:33:17;4.80;57.10
17208;DHT22;8720;48.488;9.202;2022-12-10T10:35:46;4.90;57.10
17208;DHT22;8720;48.488;9.202;2022-12-10T10:38:18;4.90;57.50
17208;DHT22;8720;48.488;9.202;2022-12-10T10:40:50;4.90;56.80
17208;DHT22;8720;48.488;9.202;2022-12-10T10:43:23;4.90;56.90
17208;DHT22;8720;48.488;9.202;2022-12-10T10:45:55;5.00;57.00
17208;DHT22;8720;48.488;9.202;2022-12-10T10:48:26;5.00;56.90
17208;DHT22;8720;48.488;9.202;2022-12-10T10:51:04;5.00;56.90
17208;DHT22;8720;48.488;9.202;2022-12-10T10:53:40;5.10;57.00
17208;DHT22;8720;48.488;9.202;2022-12-10T10:56:10;5.10;56.80
17208;DHT22;8720;48.488;9.202;2022-12-10T10:58:54;5.20;56.80
17208;DHT22;8720;48.488;9.202;2022-12-10T11:01:26;5.20;56.50
17208;DHT22;8720;48.488;9.202;2022-12-10T11:04:11;5.10;56.40
17208;DHT22;8720;48.488;9.202;2022-12-10T11:06:40;5.20;56.40
17208;DHT22;8720;48.488;9.202;2022-12-10T11:09:15;5.20;56.30
17208;DHT22;8720;48.488;9.202;2022-12-10T11:11:50;5.20;56.10
17208;DHT22;8720;48.488;9.202;2022-12-10T11:14:29;5.20;56.10
17208;DHT22;8720;48.488;9.202;2022-12-10T11:17:02;5.20;56.10
17208;DHT22;8720;48.488;9.202;2022-12-10T11:19:51;5.20;55.90
17208;DHT22;8720;48.488;9.202;2022-12-10T11:22:23;5.20;55.80
17208;DHT22;8720;48.488;9.202;2022-12-10T11:24:51;5.10;55.60
17208;DHT22;8720;48.488;9.202;2022-12-10T11:27:30;5.10;55.40
17208;DHT22;8720;48.488;9.202;2022-12-10T11:30:10;5.10;55.90
17208;DHT22;8720;48.488;9.202;2022-12-10T11:32:50;5.10;55.40
17208;DHT22;8720;48.488;9.202;2022-12-10T11:35:40;5.10;55.60
17208;DHT22;8720;48.488;9.202;2022-12-10T11:38:23;5.10;55.70
17208;DHT22;8720;48.488;9.202;2022-12-10T11:41:00;5.10;55.50
17208;DHT22;8720;48.488;9.202;2022-12-10T11:43:47;5.00;55.40
17208;DHT22;8720;48.488;9.202;2022-12-10T11:46:51;5.00;55.80
17208;DHT22;8720;48.488;9.202;2022-12-10T11:49:38;5.00;55.80
17208;DHT22;8720;48.488;9.202;2022-12-10T11:52:14;5.00;55.40
17208;DHT22;8720;48.488;9.202;2022-12-10T11:54:56;5.00;55.60
17208;DHT22;8720;48.488;9.202;2022-12-10T11:57:36;5.00;55.30
17208;DHT22;8720;48.488;9.202;2022-12-10T12:00:19;5.00;55.30
17208;DHT22;8720;48.488;9.202;2022-12-10T12:03:00;5.00;55.20
17208;DHT22;8720;48.488;9.202;2022-12-10T12:06:07;5.00;55.00
17208;DHT22;8720;48.488;9.202;2022-12-10T12:08:51;5.00;54.70
17208;DHT22;8720;48.488;9.202;2022-12-10T12:11:40;5.00;55.00
17208;DHT22;8720;48.488;9.202;2022-12-10T12:14:24;5.00;54.80
17208;DHT22;8720;48.488;9.202;2022-12-10T12:17:02;5.00;54.90
17208;DHT22;8720;48.488;9.202;2022-12-10T12:19:38;5.00;54.60
17208;DHT22;8720;48.488;9.202;2022-12-10T12:22:14;5.00;54.20
17208;DHT22;8720;48.488;9.202;2022-12-10T12:24:53;5.00;53.90
17208;DHT22;8720;48.488;9.202;2022-12-10T12:27:27;5.00;53.80
17208;DHT22;8720;48.488;9.202;2022-12-10T12:30:03;5.00;53.70
17208;DHT22;8720;48.488;9.202;2022-12-10T12:32:46;5.00;53.80
17208;DHT22;8720;48.488;9.202;2022-12-10T12:35:23;5.00;53.70
17208;DHT22;8720;48.488;9.202;2022-12-10T12:38:03;5.00;53.80
17208;DHT22;8720;48.488;9.202;2022-12-10T12:40:42;5.00;54.00
17208;DHT22;8720;48.488;9.202;2022-12-10T12:43:19;5.00;53.90
17208;DHT22;8720;48.488;9.202;2022-12-10T12:45:54;5.00;53.60
17208;DHT22;8720;48.488;9.202;2022-12-10T12:48:26;5.00;53.60
17208;DHT22;8720;48.488;9.202;2022-12-10T12:51:04;4.90;53.20
17208;DHT22;8720;48.488;9.202;2022-12-10T12:53:36;4.90;53.30
17208;DHT22;8720;48.488;9.202;2022-12-10T12:56:07;4.90;53.30
17208;DHT22;8720;48.488;9.202;2022-12-10T12:58:48;4.90;52.70
17208;DHT22;8720;48.488;9.202;2022-12-10T13:01:33;4.80;52.40
17208;DHT22;8720;48.488;9.202;2022-12-10T13:04:06;4.80;52.20
17208;DHT22;8720;48.488;9.202;2022-12-10T13:06:37;4.80;52.50
17208;DHT22;8720;48.488;9.202;2022-12-10T13:09:27;4.80;52.50
17208;DHT22;8720;48.488;9.202;2022-12-10T13:12:18;4.80;52.50
17208;DHT22;8720;48.488;9.202;2022-12-10T13:15:03;4.80;52.50
17208;DHT22;8720;48.488;9.202;2022-12-10T13:18:01;4.80;52.80
17208;DHT22;8720;48.488;9.202;2022-12-10T13:20:47;4.90;52.80
17208;DHT22;8720;48.488;9.202;2022-12-10T13:23:32;4.90;53.10
17208;DHT22;8720;48.488;9.202;2022-12-10T13:26:02;4.90;52.40
17208;DHT22;8720;48.488;9.202;2022-12-10T13:28:38;4.90;52.90
17208;DHT22;8720;48.488;9.202;2022-12-10T13:31:33;4.90;52.80
17208;DHT22;8720;48.488;9.202;2022-12-10T13:34:21;4.90;52.30
17208;DHT22;8720;48.488;9.202;2022-12-10T13:37:27;4.90;51.90
17208;DHT22;8720;48.488;9.202;2022-12-10T13:40:13;4.90;51.90
17208;DHT22;8720;48.488;9.202;2022-12-10T13:42:57;4.90;52.10
17208;DHT22;8720;48.488;9.202;2022-12-10T13:45:43;4.90;52.30
17208;DHT22;8720;48.488;9.202;2022-12-10T13:48:28;4.90;52.40
17208;DHT22;8720;48.488;9.202;2022-12-10T13:51:17;4.90;51.80
17208;DHT22;8720;48.488;9.202;2022-12-10T13:57:06;4.80;52.20
17208;DHT22;8720;48.488;9.202;2022-12-10T13:59:49;4.80;52.30
17208;DHT22;8720;48.488;9.202;2022-12-10T14:02:46;4.80;52.50
17208;DHT22;8720;48.488;9.202;2022-12-10T14:05:42;4.80;52.10
17208;DHT22;8720;48.488;9.202;2022-12-10T14:08:41;4.70;52.00
17208;DHT22;8720;48.488;9.202;2022-12-10T14:11:23;4.70;52.20
17208;DHT22;8720;48.488;9.202;2022-12-10T14:13:58;4.70;52.40
17208;DHT22;8720;48.488;9.202;2022-12-10T14:16:30;4.70;52.30
17208;DHT22;8720;48.488;9.202;2022-12-10T14:19:04;4.70;52.40
17208;DHT22;8720;48.488;9.202;2022-12-10T14:21:36;4.70;52.40
17208;DHT22;8720;48.488;9.202;2022-12-10T14:24:27;4.70;52.40
17208;DHT22;8720;48.488;9.202;2022-12-10T14:26:58;4.60;52.00
17208;DHT22;8720;48.488;9.202;2022-12-10T14:29:29;4.60;52.40
17208;DHT22;8720;48.488;9.202;2022-12-10T14:31:57;4.60;52.30
17208;DHT22;8720;48.488;9.202;2022-12-10T14:34:27;4.60;52.30
17208;DHT22;8720;48.488;9.202;2022-12-10T14:36:57;4.60;52.20
17208;DHT22;8720;48.488;9.202;2022-12-10T14:39:30;4.60;52.20
17208;DHT22;8720;48.488;9.202;2022-12-10T14:42:01;4.60;52.10
17208;DHT22;8720;48.488;9.202;2022-12-10T14:44:35;4.60;52.60
17208;DHT22;8720;48.488;9.202;2022-12-10T14:47:10;4.60;51.90
17208;DHT22;8720;48.488;9.202;2022-12-10T14:49:41;4.60;52.00
17208;DHT22;8720;48.488;9.202;2022-12-10T14:52:13;4.60;52.20
17208;DHT22;8720;48.488;9.202;2022-12-10T14:54:41;4.60;52.20
17208;DHT22;8720;48.488;9.202;2022-12-10T14:57:15;4.60;52.20
17208;DHT22;8720;48.488;9.202;2022-12-10T14:59:49;4.50;52.10
17208;DHT22;8720;48.488;9.202;2022-12-10T15:02:25;4.50;52.40
17208;DHT22;8720;48.488;9.202;2022-12-10T15:04:56;4.50;52.80
17208;DHT22;8720;48.488;9.202;2022-12-10T15:07:26;4.40;52.90
17208;DHT22;8720;48.488;9.202;2022-12-10T15:10:02;4.40;53.00
17208;DHT22;8720;48.488;9.202;2022-12-10T15:12:38;4.40;53.00
17208;DHT22;8720;48.488;9.202;2022-12-10T15:15:15;4.40;53.10
17208;DHT22;8720;48.488;9.202;2022-12-10T15:17:55;4.30;53.20
17208;DHT22;8720;48.488;9.202;2022-12-10T15:20:27;4.30;53.30
17208;DHT22;8720;48.488;9.202;2022-12-10T15:23:08;4.30;53.60
17208;DHT22;8720;48.488;9.202;2022-12-10T15:25:45;4.30;53.60
17208;DHT22;8720;48.488;9.202;2022-12-10T15:28:25;4.30;53.60
17208;DHT22;8720;48.488;9.202;2022-12-10T15:31:10;4.30;53.80
17208;DHT22;8720;48.488;9.202;2022-12-10T15:33:43;4.20;54.00
17208;DHT22;8720;48.488;9.202;2022-12-10T15:36:20;4.20;54.00
17208;DHT22;8720;48.488;9.202;2022-12-10T15:38:54;4.20;54.30
17208;DHT22;8720;48.488;9.202;2022-12-10T15:41:41;4.20;54.30
17208;DHT22;8720;48.488;9.202;2022-12-10T15:44:26;4.20;54.40
17208;DHT22;8720;48.488;9.202;2022-12-10T15:47:02;4.10;54.90
17208;DHT22;8720;48.488;9.202;2022-12-10T15:49:35;4.10;55.50
17208;DHT22;8720;48.488;9.202;2022-12-10T15:52:03;4.20;54.80
17208;DHT22;8720;48.488;9.202;2022-12-10T15:54:33;4.20;54.70
17208;DHT22;8720;48.488;9.202;2022-12-10T15:57:12;4.20;54.70
17208;DHT22;8720;48.488;9.202;2022-12-10T15:59:40;4.10;54.70
17208;DHT22;8720;48.488;9.202;2022-12-10T16:02:23;4.10;54.70
17208;DHT22;8720;48.488;9.202;2022-12-10T16:04:57;4.10;54.70
17208;DHT22;8720;48.488;9.202;2022-12-10T16:07:24;4.10;54.70
17208;DHT22;8720;48.488;9.202;2022-12-10T16:09:52;4.10;54.70
17208;DHT22;8720;48.488;9.202;2022-12-10T16:12:19;4.10;54.80
17208;DHT22;8720;48.488;9.202;2022-12-10T16:14:49;4.00;54.80
17208;DHT22;8720;48.488;9.202;2022-12-10T16:17:23;4.10;55.00
17208;DHT22;8720;48.488;9.202;2022-12-10T16:19:50;4.00;55.60
17208;DHT22;8720;48.488;9.202;2022-12-10T16:22:18;4.00;55.00
17208;DHT22;8720;48.488;9.202;2022-12-10T16:24:45;4.00;55.00
17208;DHT22;8720;48.488;9.202;2022-12-10T16:27:15;3.90;55.00
17208;DHT22;8720;48.488;9.202;2022-12-10T16:29:43;3.90;55.20
17208;DHT22;8720;48.488;9.202;2022-12-10T16:32:11;3.90;55.30
17208;DHT22;8720;48.488;9.202;2022-12-10T16:34:40;3.90;55.10
17208;DHT22;8720;48.488;9.202;2022-12-10T16:37:08;3.90;54.90
17208;DHT22;8720;48.488;9.202;2022-12-10T16:39:36;3.80;54.90
17208;DHT22;8720;48.488;9.202;2022-12-10T16:42:05;3.80;55.00
17208;DHT22;8720;48.488;9.202;2022-12-10T16:44:32;3.80;55.20
17208;DHT22;8720;48.488;9.202;2022-12-10T16:46:59;3.80;55.20
17208;DHT22;8720;48.488;9.202;2022-12-10T16:49:27;3.80;55.20